createdAt,value
2022-07-25T00:00:17.022Z,1011.4
2022-07-25T00:05:59.369Z,1011.4
2022-07-25T00:11:39.986Z,1011.4
2022-07-25T00:17:23.189Z,1011.4
2022-07-25T00:23:03.417Z,1011.4
2022-07-25T00:28:43.824Z,1011.6
2022-07-25T00:34:26.501Z,1011.5
2022-07-25T00:40:07.131Z,1011.6
2022-07-25T00:45:50.027Z,1011.4
2022-07-25T00:51:30.406Z,1011.4
2022-07-25T00:57:11.110Z,1011.3
2022-07-25T01:02:52.244Z,1011.3
2022-07-25T01:08:33.256Z,1011.1
2022-07-25T01:14:13.581Z,1011.1
2022-07-25T01:19:56.153Z,1011
2022-07-25T01:25:38.999Z,1011.1
2022-07-25T01:31:20.343Z,1011.2
2022-07-25T01:37:02.049Z,1011.3
2022-07-25T01:42:42.334Z,1011.2
2022-07-25T01:48:22.647Z,1011.2
2022-07-25T01:54:10.851Z,1011.3
2022-07-25T01:59:51.098Z,1011.2
2022-07-25T02:05:31.597Z,1011.3
2022-07-25T02:11:11.968Z,1011.3
2022-07-25T02:16:52.506Z,1011.2
2022-07-25T02:22:36.550Z,1012.3
2022-07-25T02:28:17.022Z,1012.5
2022-07-25T02:39:37.496Z,1012.3
2022-07-25T02:50:57.564Z,1012.4
2022-07-25T02:56:37.850Z,1012
2022-07-25T03:07:19.120Z,1011.7
2022-07-25T03:12:59.397Z,1011.7
2022-07-25T03:18:40.012Z,1011.7
2022-07-25T03:24:20.685Z,1011.6
2022-07-25T03:30:01.125Z,1011.8
2022-07-25T03:35:41.816Z,1011.9
2022-07-25T03:41:22.399Z,1011.2
2022-07-25T03:47:03.010Z,1010.9
2022-07-25T03:52:43.580Z,1010.5
2022-07-25T03:58:24.141Z,1010.3
2022-07-25T04:04:05.844Z,1010
2022-07-25T04:09:48.614Z,1009.9
2022-07-25T04:15:31.223Z,1009.5
2022-07-25T04:21:11.607Z,1009.5
2022-07-25T04:26:51.983Z,1009.4
2022-07-25T04:32:32.331Z,1009.3
2022-07-25T04:38:12.716Z,1009.1
2022-07-25T04:43:53.606Z,1008.9
2022-07-25T04:49:34.110Z,1009
2022-07-25T04:55:14.121Z,1008.9
2022-07-25T05:00:54.333Z,1009
2022-07-25T05:06:34.834Z,1009
2022-07-25T05:12:18.318Z,1009
2022-07-25T05:17:58.589Z,1009
2022-07-25T05:23:39.056Z,1008.9
2022-07-25T05:29:19.429Z,1008.9
2022-07-25T05:35:00.113Z,1008.8
2022-07-25T05:40:40.568Z,1008.7
2022-07-25T05:46:20.977Z,1008.7
2022-07-25T05:52:01.121Z,1008.7
2022-07-25T05:57:41.381Z,1008.7
2022-07-25T06:03:21.607Z,1008.7
2022-07-25T06:09:17.552Z,1008.7
2022-07-25T06:15:00.028Z,1008.8
2022-07-25T06:20:40.604Z,1008.7
2022-07-25T06:26:20.807Z,1008.7
2022-07-25T06:32:01.703Z,1008.7
2022-07-25T06:37:43.000Z,1008.8
2022-07-25T06:43:23.476Z,1008.7
2022-07-25T06:49:03.854Z,1008.6
2022-07-25T06:54:44.845Z,1008.6
2022-07-25T07:00:28.159Z,1008.7
2022-07-25T07:06:09.320Z,1008.8
2022-07-25T07:11:49.529Z,1008.7
2022-07-25T07:17:29.665Z,1008.7
2022-07-25T07:23:10.249Z,1008.7
2022-07-25T07:28:49.887Z,1008.7
2022-07-25T07:34:30.275Z,1008.7
2022-07-25T07:40:18.486Z,1008.9
2022-07-25T07:45:58.477Z,1009
2022-07-25T07:51:38.628Z,1008.9
2022-07-25T07:57:18.375Z,1008.9
2022-07-25T08:02:58.742Z,1008.9
2022-07-25T08:08:39.662Z,1008.9
2022-07-25T08:14:19.855Z,1009.1
2022-07-25T08:20:38.812Z,1009
2022-07-25T08:26:20.870Z,1009.1
2022-07-25T08:32:02.408Z,1009.2
2022-07-25T08:37:43.383Z,1009.2
2022-07-25T08:43:23.587Z,1009.2
2022-07-25T08:49:05.379Z,1009.3
2022-07-25T08:54:49.035Z,1009.2
2022-07-25T09:00:36.675Z,1009.3
2022-07-25T09:06:17.088Z,1009.3
2022-07-25T09:11:56.653Z,1009.3
2022-07-25T09:17:38.192Z,1009.6
2022-07-25T09:23:20.327Z,1009.7
2022-07-25T09:29:00.139Z,1009.7
2022-07-25T09:34:40.584Z,1009.8
2022-07-25T09:40:20.941Z,1009.8
2022-07-25T09:46:01.565Z,1010
2022-07-25T09:51:44.961Z,1009.8
2022-07-25T09:57:25.312Z,1009.8
2022-07-25T10:03:06.845Z,1009.6
2022-07-25T10:08:47.847Z,1009.6
2022-07-25T10:14:28.355Z,1009.6
2022-07-25T10:20:17.721Z,1009.6
2022-07-25T10:25:59.191Z,1009.6
2022-07-25T10:31:52.077Z,1009.7
2022-07-25T10:37:40.000Z,1009.8
2022-07-25T10:43:38.580Z,1009.8
2022-07-25T10:50:00.502Z,1009.8
2022-07-25T10:56:40.418Z,1009.7
2022-07-25T11:02:30.534Z,1010
2022-07-25T11:08:23.249Z,1009.9
2022-07-25T11:14:16.714Z,1009.9
2022-07-25T11:20:24.214Z,1009.8
2022-07-25T11:26:15.466Z,1009.8
2022-07-25T11:32:04.666Z,1010
2022-07-25T11:37:57.197Z,1010.1
2022-07-25T11:43:43.743Z,1010.2
2022-07-25T12:27:45.862Z,1010.2
2022-07-25T12:44:44.721Z,1010.3
2022-07-25T12:50:25.105Z,1010.3
2022-07-25T12:56:10.899Z,1010.2
2022-07-25T13:01:58.277Z,1010.2
2022-07-25T13:07:41.763Z,1010.2
2022-07-25T13:13:52.216Z,1010.2
2022-07-25T13:19:40.457Z,1010.2
2022-07-25T13:25:23.805Z,1010.1
2022-07-25T13:31:04.679Z,1010.2
2022-07-25T13:36:51.596Z,1010.3
2022-07-25T13:42:40.835Z,1010.3
2022-07-25T13:48:32.142Z,1010.5
2022-07-25T13:54:24.152Z,1010.4
2022-07-25T14:00:13.468Z,1010.3
2022-07-25T14:06:01.959Z,1010.5
2022-07-25T14:11:46.497Z,1010.7
2022-07-25T14:17:43.098Z,1010.7
2022-07-25T14:23:41.403Z,1010.9
2022-07-25T14:29:21.479Z,1011
2022-07-25T14:35:10.395Z,1011
2022-07-25T14:40:51.360Z,1011.1
2022-07-25T14:46:32.096Z,1011.2
2022-07-25T14:52:12.773Z,1011.2
2022-07-25T14:57:56.533Z,1011.1
2022-07-25T15:03:37.188Z,1011.2
2022-07-25T15:09:19.096Z,1011.2
2022-07-25T15:15:02.820Z,1011.1
2022-07-25T15:20:46.110Z,1011
2022-07-25T15:26:26.774Z,1011
2022-07-25T15:32:07.730Z,1011
2022-07-25T15:37:48.884Z,1011
2022-07-25T15:43:28.953Z,1011
2022-07-25T15:49:10.857Z,1011.1
2022-07-25T15:54:52.464Z,1011.1
2022-07-25T16:00:32.918Z,1011.1
2022-07-25T16:06:22.035Z,1011.1
2022-07-25T16:12:03.517Z,1011.1
2022-07-25T16:17:43.868Z,1011
2022-07-25T16:23:26.861Z,1011.1
2022-07-25T16:29:13.997Z,1011.1
2022-07-25T16:34:54.662Z,1011.1
2022-07-25T16:40:35.561Z,1011.2
2022-07-25T16:46:15.981Z,1011.1
2022-07-25T16:52:01.190Z,1011.3
2022-07-25T16:57:55.306Z,1011.2
2022-07-25T17:03:35.527Z,1011.2
2022-07-25T17:09:15.653Z,1011.2
2022-07-25T17:20:00.706Z,1011.3
2022-07-25T17:25:41.414Z,1011.3
2022-07-25T17:31:24.603Z,1011.3
2022-07-25T17:37:05.520Z,1011.3
2022-07-25T17:42:45.916Z,1011.4
2022-07-25T17:48:30.554Z,1011.4
2022-07-25T17:54:12.258Z,1011.5
2022-07-25T17:59:52.709Z,1011.6
2022-07-25T18:05:33.300Z,1011.7
2022-07-25T18:11:13.559Z,1011.7
2022-07-25T18:16:59.211Z,1011.6
2022-07-25T18:22:41.212Z,1011.6
2022-07-25T18:28:32.601Z,1011.7
2022-07-25T18:34:16.459Z,1011.7
2022-07-25T18:40:09.421Z,1011.8
2022-07-25T18:45:54.761Z,1011.9
2022-07-25T18:51:42.823Z,1011.8
2022-07-25T19:03:03.948Z,1011.9
2022-07-25T19:14:59.757Z,1012
2022-07-25T19:20:51.517Z,1012
2022-07-25T19:26:40.009Z,1012.1
2022-07-25T19:32:23.663Z,1012.1
2022-07-25T19:38:07.095Z,1012.3
2022-07-25T19:43:47.325Z,1012.3
2022-07-25T19:49:41.723Z,1012.4
2022-07-25T19:55:24.398Z,1012.5
2022-07-25T20:01:04.899Z,1012.4
2022-07-25T20:06:48.303Z,1012.5
2022-07-25T20:12:31.359Z,1012.5
2022-07-25T20:18:20.780Z,1012.5
2022-07-25T20:24:01.000Z,1012.5
2022-07-25T20:29:41.321Z,1012.5
2022-07-25T20:35:34.579Z,1012.6
2022-07-25T20:46:34.773Z,1012.7
2022-07-25T20:52:18.064Z,1012.7
2022-07-25T20:58:00.272Z,1012.8
2022-07-25T21:03:42.173Z,1012.7
2022-07-25T21:09:34.328Z,1012.8
2022-07-25T21:15:16.274Z,1012.9
2022-07-25T21:20:59.439Z,1012.9
2022-07-25T21:26:42.327Z,1013.1
2022-07-25T21:32:23.241Z,1013.1
2022-07-25T21:38:11.275Z,1013.2
2022-07-25T21:44:26.870Z,1013.2
2022-07-25T21:50:25.125Z,1013.3
2022-07-25T21:56:15.229Z,1013.4
2022-07-25T22:01:55.677Z,1013.5
2022-07-25T22:07:40.009Z,1013.5
2022-07-25T22:13:20.628Z,1013.6
2022-07-25T22:19:01.203Z,1013.7
2022-07-25T22:24:49.947Z,1013.8
2022-07-25T22:30:30.568Z,1013.9
2022-07-25T22:36:10.796Z,1014
2022-07-25T22:41:51.029Z,1014.1
2022-07-25T22:47:31.542Z,1014.2
2022-07-25T22:53:11.741Z,1014.8
2022-07-25T22:58:51.971Z,1015.1
2022-07-25T23:09:37.140Z,1015.4
2022-07-25T23:15:17.163Z,1015.6
2022-07-25T23:20:57.362Z,1015.7
2022-07-25T23:26:38.360Z,1015.9
2022-07-25T23:32:18.570Z,1016.1
2022-07-25T23:38:00.737Z,1016.3
2022-07-25T23:44:00.215Z,1016.6
2022-07-25T23:49:40.446Z,1016.7
2022-07-25T23:55:20.566Z,1017
